Time;durP1;ratioP1;P1;durP2;ratioP2;P2;SDS_P1;SDS_P2;PMS_P1;PMS_P2;Temp;Humidity;BMP_temperature;BMP_pressure;BME280_temperature;BME280_humidity;BME280_pressure;Samples;Min_cycle;Max_cycle;Signal;HPM_P1;HPM_P2
2023/05/06 00:00:31;;;;;;;;;2.00;1.00;;;;;21.27;48.71;101150.53;4977435;28;46214;-47
2023/05/06 00:02:58;;;;;;;;;1.25;1.00;;;;;21.28;48.77;101154.88;4977511;28;45186;-50
2023/05/06 00:05:24;;;;;;;;;1.00;1.00;;;;;21.28;48.83;101154.00;4978059;28;45313;-47
2023/05/06 00:07:49;;;;;;;;;1.00;1.00;;;;;21.27;48.84;101147.88;4977858;28;45527;-48
2023/05/06 00:10:15;;;;;;;;;1.00;1.00;;;;;21.28;48.91;101154.00;4976762;28;63423;-50
2023/05/06 00:12:41;;;;;;;;;1.00;1.00;;;;;21.27;48.66;101153.16;4976241;28;45935;-49
2023/05/06 00:15:07;;;;;;;;;1.00;1.00;;;;;21.27;48.96;101153.16;4975474;28;45297;-46
2023/05/06 00:17:32;;;;;;;;;1.00;1.00;;;;;21.26;48.84;101148.81;4977508;28;45620;-44
2023/05/06 00:19:57;;;;;;;;;2.00;1.75;;;;;21.28;49.00;101149.59;4977184;28;45444;-49
2023/05/06 00:22:23;;;;;;;;;1.00;1.00;;;;;21.27;48.73;101144.41;4977149;28;59348;-43
2023/05/06 00:24:49;;;;;;;;;1.00;1.00;;;;;21.28;48.82;101146.97;4978040;28;45362;-43
2023/05/06 00:27:14;;;;;;;;;1.00;1.00;;;;;21.28;48.72;101146.97;4981982;28;45527;-49
2023/05/06 00:29:39;;;;;;;;;1.00;1.00;;;;;21.27;48.89;101147.06;4984469;28;60424;-45
2023/05/06 00:32:05;;;;;;;;;0.75;0.50;;;;;21.27;48.77;101150.53;4979058;28;45334;-55
2023/05/06 00:34:30;;;;;;;;;1.00;1.00;;;;;21.27;48.91;101147.88;4977569;28;45309;-54
2023/05/06 00:36:55;;;;;;;;;1.50;1.00;;;;;21.28;48.69;101146.97;4977683;28;45334;-52
2023/05/06 00:39:21;;;;;;;;;2.00;1.00;;;;;21.28;48.84;101146.09;4977049;28;62956;-54
2023/05/06 00:41:46;;;;;;;;;3.00;1.00;;;;;21.27;49.08;101141.78;4998505;28;45167;-50
2023/05/06 00:44:11;;;;;;;;;0.75;0.50;;;;;21.27;48.92;101137.34;5000666;28;45146;-48
2023/05/06 00:46:37;;;;;;;;;1.00;1.00;;;;;21.25;49.11;101136.56;4983649;28;45218;-43
2023/05/06 00:49:03;;;;;;;;;2.00;1.00;;;;;21.27;48.89;101132.06;4993961;28;46168;-46
2023/05/06 00:51:28;;;;;;;;;1.00;1.00;;;;;21.25;49.01;101135.72;4991935;28;45283;-49
2023/05/06 00:53:54;;;;;;;;;3.00;1.00;;;;;21.27;48.73;101134.72;4977628;28;45289;-45
2023/05/06 00:56:19;;;;;;;;;2.25;1.00;;;;;21.29;48.91;101146.03;4977188;28;45555;-47
2023/05/06 00:58:45;;;;;;;;;2.00;1.00;;;;;21.28;48.83;101132.91;4976755;28;45454;-42
2023/05/06 01:01:11;;;;;;;;;0.50;0.50;;;;;21.28;48.91;101139.06;4976755;28;45305;-43
2023/05/06 01:03:36;;;;;;;;;1.25;1.25;;;;;21.28;48.70;101133.78;4977441;28;45320;-42
2023/05/06 01:06:11;;;;;;;;;0.25;0.25;;;;;21.28;48.39;101133.78;4984743;28;45523;-43
2023/05/06 01:08:46;;;;;;;;;2.00;1.00;;;;;21.29;48.58;101135.47;4984705;28;46495;-44
2023/05/06 01:11:52;;;;;;;;;1.50;1.00;;;;;21.28;48.62;101136.41;4976904;28;45340;-45
2023/05/06 01:14:45;;;;;;;;;3.00;0.75;;;;;21.27;48.73;101134.72;4956632;28;45426;-42
2023/05/06 01:17:13;;;;;;;;;2.00;1.00;;;;;21.28;48.56;101136.41;4976786;28;45621;-44
2023/05/06 01:19:48;;;;;;;;;1.25;1.25;;;;;21.28;48.56;101131.16;4976415;28;47017;-45
2023/05/06 01:22:15;;;;;;;;;1.00;1.00;;;;;21.27;48.36;101129.44;4976481;28;45332;-43
2023/05/06 01:24:42;;;;;;;;;1.00;1.00;;;;;21.27;48.85;101129.44;4976873;28;45353;-43
2023/05/06 01:27:09;;;;;;;;;1.50;1.00;;;;;21.27;48.69;101132.06;4980245;28;45254;-43
2023/05/06 01:29:37;;;;;;;;;3.00;1.00;;;;;21.26;48.79;101119.81;4979834;28;46496;-46
2023/05/06 01:32:25;;;;;;;;;1.00;1.00;;;;;21.27;48.63;101120.69;4981987;28;45483;-48
2023/05/06 01:34:59;;;;;;;;;3.00;1.25;;;;;21.28;48.46;101117.09;4984925;28;45384;-47
2023/05/06 01:37:32;;;;;;;;;1.00;1.00;;;;;21.26;48.47;101117.19;4985185;28;45390;-49
2023/05/06 01:39:59;;;;;;;;;1.75;1.75;;;;;21.27;48.78;101121.53;4980783;28;46614;-44
2023/05/06 01:42:26;;;;;;;;;1.00;1.00;;;;;21.27;48.46;101113.63;4981772;28;45297;-51
2023/05/06 01:44:54;;;;;;;;;2.00;1.00;;;;;21.27;48.56;101124.16;4988202;28;45349;-44
2023/05/06 01:47:20;;;;;;;;;1.75;1.75;;;;;21.26;48.32;101114.56;4985781;28;45708;-42
2023/05/06 01:49:46;;;;;;;;;0.00;0.00;;;;;21.27;48.31;101110.97;4979971;28;46527;-43
2023/05/06 01:52:14;;;;;;;;;2.00;1.00;;;;;21.26;48.19;101114.56;4979830;28;45834;-46
2023/05/06 01:54:39;;;;;;;;;0.75;0.50;;;;;21.26;48.65;101109.28;4979791;28;45376;-49
2023/05/06 01:57:04;;;;;;;;;1.00;1.00;;;;;21.27;48.29;101110.97;4979351;28;46998;-44
2023/05/06 01:59:30;;;;;;;;;1.67;1.00;;;;;21.24;48.35;101097.97;4979151;28;66756;-46
2023/05/06 02:01:55;;;;;;;;;1.00;1.00;;;;;21.26;48.16;101093.47;4979588;28;45360;-48
2023/05/06 02:04:20;;;;;;;;;1.00;1.00;;;;;21.27;48.38;101095.16;4979229;28;51427;-46
2023/05/06 02:06:46;;;;;;;;;1.00;1.00;;;;;21.27;48.26;101108.34;4979366;28;45396;-45
2023/05/06 02:09:11;;;;;;;;;1.67;1.67;;;;;21.26;48.30;101093.47;4978861;28;65907;-44
2023/05/06 02:11:36;;;;;;;;;0.50;0.50;;;;;21.26;48.53;101100.53;4979359;28;45345;-43
2023/05/06 02:14:02;;;;;;;;;1.00;1.00;;;;;21.26;48.25;101104.00;4978957;28;45344;-48
2023/05/06 02:16:27;;;;;;;;;0.75;0.50;;;;;21.26;48.07;101104.00;4979126;28;45774;-51
2023/05/06 02:18:53;;;;;;;;;1.75;1.00;;;;;21.27;48.06;101110.16;4980490;28;46279;-47
2023/05/06 02:21:18;;;;;;;;;2.00;1.00;;;;;21.26;48.19;101114.56;4983098;28;45325;-46
2023/05/06 02:23:44;;;;;;;;;1.50;1.50;;;;;21.25;48.14;101110.22;4991788;28;45526;-48
2023/05/06 02:26:09;;;;;;;;;0.75;0.75;;;;;21.25;48.34;101104.94;4997624;28;45630;-46
2023/05/06 02:28:34;;;;;;;;;1.00;0.50;;;;;21.25;48.41;101118.13;4997683;28;50915;-45
2023/05/06 02:31:00;;;;;;;;;1.00;1.00;;;;;21.27;48.07;101104.88;4994916;28;45252;-49
2023/05/06 02:33:25;;;;;;;;;1.00;1.00;;;;;21.26;48.08;101103.16;4992117;28;50233;-51
2023/05/06 02:35:51;;;;;;;;;1.00;1.00;;;;;21.27;48.06;101107.50;4996519;28;45523;-47
2023/05/06 02:38:17;;;;;;;;;0.00;0.00;;;;;21.26;48.25;101108.44;4993829;28;46633;-44
2023/05/06 02:40:42;;;;;;;;;0.00;0.00;;;;;21.27;48.05;101107.50;4995227;28;45294;-49
2023/05/06 02:43:08;;;;;;;;;1.25;1.25;;;;;21.27;48.47;101110.16;4996923;28;45340;-45
2023/05/06 02:45:33;;;;;;;;;1.00;1.00;;;;;21.26;48.36;101104.00;4980416;28;45283;-49
2023/05/06 02:47:58;;;;;;;;;2.00;2.00;;;;;21.26;48.39;101101.38;4979512;28;49609;-43
2023/05/06 02:50:23;;;;;;;;;1.00;1.00;;;;;21.27;48.12;101105.72;4978561;28;66349;-44
2023/05/06 02:52:49;;;;;;;;;0.75;0.75;;;;;21.26;48.23;101101.38;4979796;28;45340;-46
2023/05/06 02:55:14;;;;;;;;;2.25;1.00;;;;;21.26;48.46;101093.47;4985723;28;45372;-43
2023/05/06 02:57:40;;;;;;;;;1.00;1.00;;;;;21.26;48.31;101097.91;5000222;28;46251;-47
2023/05/06 03:00:06;;;;;;;;;1.00;1.00;;;;;21.25;48.35;101089.13;4990543;28;52423;-45
2023/05/06 03:02:31;;;;;;;;;1.50;1.50;;;;;21.26;48.03;101093.47;4987934;28;45203;-47
2023/05/06 03:04:56;;;;;;;;;2.75;1.50;;;;;21.26;48.47;101085.56;4977600;28;45646;-50
2023/05/06 03:07:22;;;;;;;;;1.75;1.75;;;;;21.25;48.21;101086.47;4976735;28;47112;-54
2023/05/06 03:09:47;;;;;;;;;1.00;1.00;;;;;21.25;48.42;101090.91;4998721;28;53885;-47
2023/05/06 03:12:12;;;;;;;;;1.00;1.00;;;;;21.25;48.21;101096.19;4994158;28;45155;-50
2023/05/06 03:14:38;;;;;;;;;1.50;1.50;;;;;21.24;48.06;101086.56;4978656;28;45310;-46
2023/05/06 03:17:03;;;;;;;;;1.00;1.00;;;;;21.27;48.43;101094.34;4978359;28;48680;-43
2023/05/06 03:19:28;;;;;;;;;1.00;1.00;;;;;21.26;48.46;101096.09;4977922;28;55299;-45
2023/05/06 03:21:53;;;;;;;;;1.50;1.50;;;;;21.26;48.48;101082.06;4976889;28;45317;-44
2023/05/06 03:24:19;;;;;;;;;1.00;1.00;;;;;21.24;48.33;101086.56;4978422;28;45659;-44
2023/05/06 03:26:44;;;;;;;;;2.00;1.00;;;;;21.25;48.11;101085.66;4977993;28;46422;-44
2023/05/06 03:29:10;;;;;;;;;1.00;1.00;;;;;21.24;48.34;101083.94;4977957;28;48635;-48
2023/05/06 03:31:35;;;;;;;;;1.00;1.00;;;;;21.25;48.16;101086.47;4978704;28;45315;-46
2023/05/06 03:34:00;;;;;;;;;2.75;1.00;;;;;21.24;48.40;101084.78;4979913;28;45590;-48
2023/05/06 03:36:26;;;;;;;;;1.75;1.75;;;;;21.25;47.91;101083.00;4979552;28;45450;-48
2023/05/06 03:38:52;;;;;;;;;1.00;1.00;;;;;21.23;48.13;101083.06;4986285;28;45433;-47
2023/05/06 03:41:18;;;;;;;;;1.00;1.00;;;;;21.25;48.31;101080.38;4984960;28;45301;-47
2023/05/06 03:43:43;;;;;;;;;1.50;1.00;;;;;21.25;48.07;101080.38;4978039;28;45586;-45
2023/05/06 03:46:08;;;;;;;;;3.50;1.00;;;;;21.25;48.16;101080.38;4977911;28;53308;-43
2023/05/06 03:48:34;;;;;;;;;1.00;1.00;;;;;21.25;48.16;101078.56;4977370;28;45416;-49
2023/05/06 03:50:59;;;;;;;;;1.00;1.00;;;;;21.25;48.26;101078.56;4977591;28;45301;-47
2023/05/06 03:53:25;;;;;;;;;1.00;1.00;;;;;21.24;48.33;101078.66;4976804;28;45406;-47
2023/05/06 03:55:50;;;;;;;;;1.00;1.00;;;;;21.26;47.85;101079.44;4977505;28;46319;-45
2023/05/06 03:58:15;;;;;;;;;0.50;0.50;;;;;21.22;48.10;101075.25;4977648;28;45349;-45
2023/05/06 04:00:40;;;;;;;;;1.00;1.00;;;;;21.23;48.15;101072.53;4977360;28;51928;-46
2023/05/06 04:03:06;;;;;;;;;3.00;1.00;;;;;21.24;48.41;101081.31;4978004;28;45194;-49
2023/05/06 04:05:31;;;;;;;;;2.00;1.00;;;;;21.21;48.30;101074.44;4977613;28;46510;-45
2023/05/06 04:07:56;;;;;;;;;2.00;2.00;;;;;21.23;48.40;101083.06;4977512;28;45301;-47
2023/05/06 04:10:22;;;;;;;;;1.75;0.25;;;;;21.25;48.30;101086.47;4977445;28;52109;-46
2023/05/06 04:12:47;;;;;;;;;0.00;0.00;;;;;21.23;48.02;101077.81;4977912;28;45542;-43
2023/05/06 04:15:12;;;;;;;;;0.00;0.00;;;;;21.25;47.91;101078.56;4980683;28;46522;-47
2023/05/06 04:17:38;;;;;;;;;1.00;1.00;;;;;21.24;47.81;101079.50;4985978;28;45341;-45
2023/05/06 04:20:05;;;;;;;;;1.00;1.00;;;;;21.21;48.03;101077.06;4982312;28;46561;-44
2023/05/06 04:22:31;;;;;;;;;1.50;1.50;;;;;21.22;48.05;101076.09;4982022;28;45278;-48
2023/05/06 04:24:56;;;;;;;;;1.00;1.00;;;;;21.22;48.34;101072.63;4978459;28;46250;-48
2023/05/06 04:27:21;;;;;;;;;1.00;1.00;;;;;21.21;48.29;101063.00;4977211;28;45329;-42
2023/05/06 04:29:47;;;;;;;;;2.00;1.00;;;;;21.21;48.15;101069.16;4977356;28;45316;-47
2023/05/06 04:32:12;;;;;;;;;1.75;1.00;;;;;21.21;48.31;101066.53;4977465;28;45376;-44
2023/05/06 04:34:37;;;;;;;;;1.25;1.25;;;;;21.22;48.32;101067.34;4976978;28;54590;-42
2023/05/06 04:37:03;;;;;;;;;1.00;1.00;;;;;21.21;48.20;101060.38;4976587;28;57156;-49
2023/05/06 04:39:30;;;;;;;;;1.75;1.75;;;;;21.19;48.59;101062.25;4977062;28;45347;-46
2023/05/06 04:41:56;;;;;;;;;0.75;0.75;;;;;21.21;48.10;101058.59;4977171;28;45296;-44
2023/05/06 04:44:21;;;;;;;;;1.25;1.25;;;;;21.21;48.15;101055.97;4976841;28;46611;-43
2023/05/06 04:46:47;;;;;;;;;3.00;1.00;;;;;21.22;48.04;101054.16;4976909;28;45349;-43
2023/05/06 04:49:12;;;;;;;;;1.25;1.00;;;;;21.21;48.14;101057.75;4977128;28;45231;-42
2023/05/06 04:51:37;;;;;;;;;1.00;1.00;;;;;21.22;47.93;101054.16;4981248;28;45177;-44
2023/05/06 04:54:03;;;;;;;;;1.50;1.25;;;;;21.21;47.94;101058.59;4982827;28;46618;-44
2023/05/06 04:56:28;;;;;;;;;2.00;2.00;;;;;21.21;48.14;101058.59;4985465;28;45239;-47
2023/05/06 04:58:53;;;;;;;;;1.00;1.00;;;;;21.22;48.23;101064.72;4985113;28;45220;-46
2023/05/06 05:01:19;;;;;;;;;2.00;1.25;;;;;21.20;48.18;101056.91;4983466;28;48366;-42
2023/05/06 05:03:45;;;;;;;;;2.50;1.00;;;;;21.21;48.21;101057.75;4997217;28;47357;-46
2023/05/06 05:06:12;;;;;;;;;1.50;1.50;;;;;21.21;48.20;101071.78;5006571;28;45342;-46
2023/05/06 05:08:37;;;;;;;;;2.50;2.00;;;;;21.22;48.15;101065.56;4983888;28;45448;-43
2023/05/06 05:11:05;;;;;;;;;2.25;2.25;;;;;21.22;48.22;101070.00;4984867;28;45459;-46
2023/05/06 05:13:30;;;;;;;;;3.00;1.00;;;;;21.24;47.95;101076.03;4984268;28;46447;-46
2023/05/06 05:15:55;;;;;;;;;3.00;2.00;;;;;21.24;48.17;101078.66;4985107;28;60264;-47
2023/05/06 05:18:21;;;;;;;;;2.50;2.50;;;;;21.23;48.32;101080.44;4984914;28;45343;-51
2023/05/06 05:20:46;;;;;;;;;2.00;2.00;;;;;21.24;48.31;101089.22;4985278;28;45265;-48
2023/05/06 05:23:11;;;;;;;;;2.50;2.50;;;;;21.24;48.08;101089.22;4983561;28;45655;-48
2023/05/06 05:25:37;;;;;;;;;3.00;1.00;;;;;21.24;48.32;101089.22;4983484;28;67003;-51
2023/05/06 05:28:02;;;;;;;;;2.00;2.00;;;;;21.24;48.39;101089.22;4983566;28;45366;-50
2023/05/06 05:30:28;;;;;;;;;1.50;1.50;;;;;21.23;48.07;101085.72;4985037;28;45548;-44
2023/05/06 05:32:53;;;;;;;;;2.00;2.00;;;;;21.25;47.97;101099.66;4984795;28;46529;-46
2023/05/06 05:35:18;;;;;;;;;2.00;2.00;;;;;21.24;48.32;101095.31;4986575;28;58286;-48
2023/05/06 05:37:44;;;;;;;;;3.00;1.75;;;;;21.25;48.00;101096.19;4993691;28;45223;-45
2023/05/06 05:40:09;;;;;;;;;3.50;2.00;;;;;21.24;48.56;101099.75;4997019;28;45708;-47
2023/05/06 05:42:34;;;;;;;;;2.25;2.25;;;;;21.24;48.42;101103.22;4997388;28;45532;-48
2023/05/06 05:45:00;;;;;;;;;2.00;1.00;;;;;21.23;48.42;101103.31;4997910;28;55970;-44
2023/05/06 05:47:25;;;;;;;;;5.00;2.33;;;;;21.26;48.40;101097.91;4985541;28;54510;-45
2023/05/06 05:49:50;;;;;;;;;3.25;3.00;;;;;21.26;48.85;101101.38;4984471;28;45598;-43
2023/05/06 05:52:16;;;;;;;;;3.50;3.00;;;;;21.27;48.66;101095.16;4982761;28;45572;-45
2023/05/06 05:54:41;;;;;;;;;3.00;2.00;;;;;21.27;48.83;101100.44;4983576;28;45253;-46
2023/05/06 05:57:06;;;;;;;;;4.75;2.25;;;;;21.27;48.65;101095.16;4982823;28;45325;-42
2023/05/06 05:59:32;;;;;;;;;2.00;2.00;;;;;21.27;48.66;101095.16;4983448;28;45371;-46
2023/05/06 06:01:57;;;;;;;;;2.50;2.50;;;;;21.28;48.39;101104.78;4983626;28;45338;-46
2023/05/06 06:04:23;;;;;;;;;2.50;2.50;;;;;21.28;48.62;101107.41;4981780;28;45368;-42
2023/05/06 06:06:48;;;;;;;;;4.00;4.00;;;;;21.29;48.34;101111.75;4981644;28;45318;-53
2023/05/06 06:09:15;;;;;;;;;2.00;2.00;;;;;21.30;48.53;101116.09;4984589;28;45538;-43
2023/05/06 06:11:40;;;;;;;;;2.25;2.25;;;;;21.29;48.58;101114.38;4982378;28;45685;-43
2023/05/06 06:14:06;;;;;;;;;3.00;2.00;;;;;21.30;48.21;101116.09;4981583;28;45258;-44
2023/05/06 06:16:31;;;;;;;;;3.00;3.00;;;;;21.30;48.62;101116.09;4979462;28;45219;-43
2023/05/06 06:18:56;;;;;;;;;1.25;1.25;;;;;21.29;48.41;101117.03;4979419;28;45214;-48
2023/05/06 06:21:22;;;;;;;;;3.25;1.75;;;;;21.31;48.70;101117.81;4979047;28;45775;-49
2023/05/06 06:23:47;;;;;;;;;3.00;2.00;;;;;21.30;48.60;101121.38;4979461;28;45336;-42
2023/05/06 06:26:12;;;;;;;;;2.00;2.00;;;;;21.31;48.61;101117.81;4979723;28;45301;-43
2023/05/06 06:28:38;;;;;;;;;3.00;2.00;;;;;21.31;48.26;101123.06;4979037;28;52725;-46
2023/05/06 06:31:03;;;;;;;;;1.50;1.50;;;;;21.28;48.37;101110.06;4978744;28;46239;-47
2023/05/06 06:33:28;;;;;;;;;2.00;2.00;;;;;21.30;48.48;101115.22;4978895;28;45308;-47
2023/05/06 06:35:54;;;;;;;;;2.25;2.00;;;;;21.31;48.44;101117.81;4992558;28;44706;-47
2023/05/06 06:38:19;;;;;;;;;5.00;2.00;;;;;21.32;48.33;101126.56;4998415;28;54866;-46
2023/05/06 06:40:44;;;;;;;;;2.00;2.00;;;;;21.31;48.37;101117.81;4997863;28;45596;-43
2023/05/06 06:43:10;;;;;;;;;3.00;2.00;;;;;21.31;48.51;101115.16;4985658;28;60574;-47
2023/05/06 06:45:35;;;;;;;;;3.25;2.00;;;;;21.33;48.41;101122.16;4979944;28;45255;-43
2023/05/06 06:48:01;;;;;;;;;1.33;1.33;;;;;21.31;48.38;101107.25;4982254;28;54449;-53
2023/05/06 06:50:26;;;;;;;;;3.00;2.00;;;;;21.31;48.43;101109.91;4986476;28;60904;-46
2023/05/06 06:52:51;;;;;;;;;3.00;2.00;;;;;21.33;48.20;101108.97;4983269;28;62763;-46
2023/05/06 06:55:16;;;;;;;;;2.00;2.00;;;;;21.33;48.25;101109.81;4979692;28;45423;-43
2023/05/06 06:57:42;;;;;;;;;2.00;1.00;;;;;21.33;48.32;101112.44;4978077;28;60518;-46
2023/05/06 07:00:14;;;;;;;;;3.00;3.00;;;;;21.34;48.69;101110.63;4978923;28;45475;-53
2023/05/06 07:02:39;;;;;;;;;2.75;2.75;;;;;21.35;48.73;101120.25;4977679;28;45773;-50
2023/05/06 07:05:05;;;;;;;;;3.50;3.50;;;;;21.36;48.95;101124.59;4978767;28;45735;-44
2023/05/06 07:07:30;;;;;;;;;5.00;2.25;;;;;21.38;49.06;101128.00;4977887;28;45417;-45
2023/05/06 07:09:56;;;;;;;;;6.50;3.25;;;;;21.39;49.34;101127.06;4979422;28;46862;-46
2023/05/06 07:12:23;;;;;;;;;3.50;3.50;;;;;21.41;49.36;101130.47;4993629;28;45550;-44
2023/05/06 07:14:48;;;;;;;;;5.00;5.00;;;;;21.41;49.27;101122.56;4989449;28;45404;-46
2023/05/06 07:17:14;;;;;;;;;3.25;3.25;;;;;21.43;49.68;101123.34;4979840;28;45549;-44
2023/05/06 07:19:39;;;;;;;;;4.00;4.00;;;;;21.43;49.31;101128.63;4977987;28;58877;-45
2023/05/06 07:22:04;;;;;;;;;4.00;4.00;;;;;21.43;49.26;101131.25;4982014;28;61498;-47
2023/05/06 07:24:30;;;;;;;;;5.75;4.00;;;;;21.45;49.36;101129.34;4982527;28;45285;-44
2023/05/06 07:27:00;;;;;;;;;3.75;3.75;;;;;21.46;48.91;101133.69;4984100;28;45447;-43
2023/05/06 07:29:25;;;;;;;;;3.50;3.00;;;;;21.45;49.01;101126.72;4985623;28;46480;-46
2023/05/06 07:31:50;;;;;;;;;5.00;3.25;;;;;21.46;48.65;101121.38;4981035;28;45384;-42
2023/05/06 07:34:16;;;;;;;;;3.50;3.50;;;;;21.46;48.93;101125.78;4978973;28;45477;-48
2023/05/06 07:36:42;;;;;;;;;4.25;3.00;;;;;21.43;49.14;101118.06;4978574;28;45348;-50
2023/05/06 07:39:08;;;;;;;;;7.75;3.75;;;;;21.45;49.20;101124.09;4978116;28;46131;-42
2023/05/06 07:41:33;;;;;;;;;2.75;2.75;;;;;21.45;49.09;101127.59;4977777;28;45354;-42
2023/05/06 07:43:59;;;;;;;;;5.00;4.00;;;;;21.45;48.79;101130.22;4977912;28;45471;-42
2023/05/06 07:46:24;;;;;;;;;3.00;3.00;;;;;21.45;48.58;101130.22;4978221;28;45446;-42
2023/05/06 07:48:50;;;;;;;;;3.00;3.00;;;;;21.44;48.89;101136.44;4978297;28;46089;-44
2023/05/06 07:51:15;;;;;;;;;4.50;4.25;;;;;21.45;48.50;101137.28;4977911;28;45442;-43
2023/05/06 07:53:40;;;;;;;;;3.00;3.00;;;;;21.42;48.62;101130.38;4978218;28;45365;-42
2023/05/06 07:56:06;;;;;;;;;4.50;3.75;;;;;21.43;48.46;101147.06;4978159;28;45453;-42
2023/05/06 07:58:31;;;;;;;;;3.00;3.00;;;;;21.43;48.57;101147.06;4978245;28;46259;-53
2023/05/06 08:00:57;;;;;;;;;1.00;0.25;;;;;21.42;48.42;101146.22;4978002;28;45211;-44
2023/05/06 08:03:23;;;;;;;;;4.25;4.25;;;;;21.44;48.40;101143.50;4984397;28;45267;-40
2023/05/06 08:05:51;;;;;;;;;3.00;3.00;;;;;21.44;48.65;101148.78;4991696;28;44775;-42
2023/05/06 08:08:17;;;;;;;;;4.00;4.00;;;;;21.45;48.39;101139.91;4984412;28;46281;-43
2023/05/06 08:10:43;;;;;;;;;6.25;4.00;;;;;21.44;48.42;101138.22;4978783;28;45434;-43
2023/05/06 08:13:09;;;;;;;;;6.25;5.00;;;;;21.42;48.80;101138.28;4977698;28;45539;-46
2023/05/06 08:15:34;;;;;;;;;4.75;3.25;;;;;21.44;48.45;101148.78;4977921;28;45534;-41
2023/05/06 08:18:00;;;;;;;;;4.00;3.75;;;;;21.44;48.49;101148.78;4977482;28;47021;-41
2023/05/06 08:20:25;;;;;;;;;4.00;4.00;;;;;21.43;48.56;101147.06;4977287;28;45337;-42
2023/05/06 08:22:51;;;;;;;;;3.25;3.25;;;;;21.42;48.51;101145.38;4977697;28;45535;-46
2023/05/06 08:25:16;;;;;;;;;5.00;3.25;;;;;21.43;48.60;101142.63;4977166;28;46469;-42
2023/05/06 08:27:41;;;;;;;;;3.25;3.25;;;;;21.43;48.34;101147.91;4977112;28;45606;-44
2023/05/06 08:30:07;;;;;;;;;4.00;4.00;;;;;21.44;48.52;101146.97;4977210;28;45297;-43
2023/05/06 08:32:33;;;;;;;;;2.75;2.50;;;;;21.43;48.24;101149.72;4977379;28;45337;-45
2023/05/06 08:34:59;;;;;;;;;6.25;3.50;;;;;21.42;48.31;101140.94;4976525;28;45667;-47
2023/05/06 08:37:25;;;;;;;;;4.25;3.00;;;;;21.43;48.77;101125.97;4977200;28;45445;-45
2023/05/06 08:39:50;;;;;;;;;5.50;4.00;;;;;21.45;48.26;101134.63;4977470;28;45327;-41
2023/05/06 08:42:16;;;;;;;;;3.50;3.50;;;;;21.44;48.52;101154.91;4980747;28;45286;-42
2023/05/06 08:44:43;;;;;;;;;4.00;3.50;;;;;21.44;48.40;101149.63;4984813;28;45522;-44
2023/05/06 08:47:08;;;;;;;;;6.25;4.00;;;;;21.45;48.49;101139.91;4980574;28;46286;-42
2023/05/06 08:49:33;;;;;;;;;4.25;3.00;;;;;21.44;48.16;101138.22;4976955;28;45317;-40
2023/05/06 08:52:04;;;;;;;;;4.25;2.25;;;;;21.44;48.15;101138.22;4976776;28;46414;-42
2023/05/06 08:54:34;;;;;;;;;3.75;3.75;;;;;21.45;48.41;101146.06;4977202;28;45282;-41
2023/05/06 08:57:03;;;;;;;;;3.00;3.00;;;;;21.45;48.41;101145.19;4976756;28;45325;-43
2023/05/06 08:59:30;;;;;;;;;3.00;3.00;;;;;21.43;48.53;101132.09;4977149;28;45309;-42
2023/05/06 09:01:55;;;;;;;;;5.00;3.00;;;;;21.44;48.47;101141.72;4980429;28;45330;-43
2023/05/06 09:04:20;;;;;;;;;2.75;2.75;;;;;21.42;48.29;101135.66;4995962;28;45162;-41
2023/05/06 09:06:46;;;;;;;;;3.25;2.00;;;;;21.42;48.07;101138.28;4987833;28;47057;-40
2023/05/06 09:09:13;;;;;;;;;2.50;2.00;;;;;21.44;48.61;101139.06;4982510;28;45427;-41
2023/05/06 09:11:39;;;;;;;;;4.00;2.50;;;;;21.44;48.26;101133.78;4978211;28;45364;-40
2023/05/06 09:14:09;;;;;;;;;1.00;1.00;;;;;21.45;48.35;101132.00;4979802;28;45495;-41
2023/05/06 09:16:36;;;;;;;;;3.00;3.00;;;;;21.44;47.82;101138.22;4981124;28;46468;-42
2023/05/06 09:19:01;;;;;;;;;4.50;2.25;;;;;21.44;48.39;101133.78;4981493;28;45573;-42
2023/05/06 09:21:37;;;;;;;;;5.00;3.00;;;;;21.45;48.55;101139.91;4992288;28;45336;-46
2023/05/06 09:24:04;;;;;;;;;5.00;4.00;;;;;21.45;48.33;101129.34;4988590;28;45380;-47
2023/05/06 09:26:31;;;;;;;;;5.50;3.50;;;;;21.44;48.09;101136.44;4992113;28;46577;-44
2023/05/06 09:28:57;;;;;;;;;3.00;3.00;;;;;21.45;48.05;101132.00;4993049;28;45226;-56
2023/05/06 09:31:24;;;;;;;;;3.75;3.75;;;;;21.44;48.27;101132.97;4995349;28;44753;-46
2023/05/06 09:33:50;;;;;;;;;2.00;2.00;;;;;21.44;47.96;101131.16;4997833;28;45242;-44
2023/05/06 09:36:15;;;;;;;;;5.75;3.25;;;;;21.44;48.00;101138.22;5000750;28;45560;-46
2023/05/06 09:38:41;;;;;;;;;4.75;3.75;;;;;21.45;48.00;101129.34;4999261;28;44999;-45
2023/05/06 09:41:07;;;;;;;;;5.00;2.00;;;;;21.45;48.00;101124.94;4998055;28;45341;-51
2023/05/06 09:43:33;;;;;;;;;3.00;3.00;;;;;21.46;47.93;101128.44;4984130;28;45468;-49
2023/05/06 09:46:00;;;;;;;;;2.00;2.00;;;;;21.47;48.05;101131.00;4977135;28;48423;-50
2023/05/06 09:48:30;;;;;;;;;3.00;3.00;;;;;21.47;48.04;101115.19;4980269;28;45942;-47
2023/05/06 09:50:56;;;;;;;;;3.00;3.00;;;;;21.49;48.32;101125.63;4980181;28;45162;-52
2023/05/06 09:53:32;;;;;;;;;3.00;2.00;;;;;21.50;48.26;101115.94;4980257;28;45425;-44
2023/05/06 09:55:59;;;;;;;;;4.25;4.00;;;;;21.50;48.00;101116.78;4980085;28;46291;-43
2023/05/06 09:58:26;;;;;;;;;3.25;3.00;;;;;21.52;47.88;101120.19;4985091;28;45388;-48
2023/05/06 10:00:52;;;;;;;;;5.00;5.00;;;;;21.51;48.24;101113.22;4987045;28;45346;-44
2023/05/06 10:03:19;;;;;;;;;4.50;4.00;;;;;21.53;48.05;101110.47;4981253;28;45227;-44
2023/05/06 10:05:47;;;;;;;;;3.25;2.25;;;;;21.54;48.15;101110.41;4981178;28;46091;-46
2023/05/06 10:08:17;;;;;;;;;5.00;5.00;;;;;21.53;48.03;101115.75;4979350;28;45833;-51
2023/05/06 10:10:43;;;;;;;;;2.50;2.50;;;;;21.53;47.98;101111.34;4979442;28;45175;-45
2023/05/06 10:13:09;;;;;;;;;3.50;3.25;;;;;21.53;47.83;101111.34;4979616;28;45233;-44
2023/05/06 10:15:36;;;;;;;;;4.50;4.00;;;;;21.53;47.86;101108.72;4979095;28;46584;-45
2023/05/06 10:18:03;;;;;;;;;3.00;3.00;;;;;21.53;48.04;101106.06;4979248;28;45373;-42
2023/05/06 10:20:30;;;;;;;;;3.00;3.00;;;;;21.54;48.00;101106.91;4978562;28;45304;-41
2023/05/06 10:23:14;;;;;;;;;3.25;3.00;;;;;21.57;48.04;101102.31;4979459;28;45404;-42
2023/05/06 10:25:41;;;;;;;;;3.00;3.00;;;;;21.57;47.86;101106.75;4979226;28;46181;-44
2023/05/06 10:28:11;;;;;;;;;3.00;2.00;;;;;21.58;47.85;101109.28;4992837;28;45353;-49
2023/05/06 10:30:38;;;;;;;;;4.00;3.00;;;;;21.59;47.84;101100.47;4992965;28;44708;-51
2023/05/06 10:33:09;;;;;;;;;3.25;3.25;;;;;21.60;47.83;101107.47;4980380;28;45391;-47
2023/05/06 10:35:37;;;;;;;;;7.25;3.50;;;;;21.61;47.65;101103.88;4980276;28;46692;-43
2023/05/06 10:38:06;;;;;;;;;4.00;4.00;;;;;21.62;47.89;101102.94;4984773;28;45432;-43
2023/05/06 10:40:31;;;;;;;;;2.00;2.00;;;;;21.60;47.69;101096.91;4986339;28;45342;-43
2023/05/06 10:43:42;;;;;;;;;3.00;3.00;;;;;21.62;47.61;101100.31;4988148;28;45305;-43
2023/05/06 10:46:15;;;;;;;;;4.50;3.00;;;;;21.62;48.10;101095.03;4985223;28;46438;-44
2023/05/06 10:49:05;;;;;;;;;3.00;3.00;;;;;21.62;47.38;101084.50;4988301;28;45631;-44
2023/05/06 10:51:40;;;;;;;;;4.25;4.00;;;;;21.62;47.85;101084.50;4987655;28;45396;-44
2023/05/06 10:54:09;;;;;;;;;4.00;3.00;;;;;21.62;47.62;101081.84;4983046;28;45384;-45
2023/05/06 10:57:01;;;;;;;;;4.50;2.75;;;;;21.65;47.79;101085.25;4978074;28;47084;-47
2023/05/06 10:59:30;;;;;;;;;3.25;3.25;;;;;21.62;47.68;101078.34;4988950;28;45235;-47
2023/05/06 11:02:07;;;;;;;;;2.75;2.75;;;;;21.63;47.42;101080.06;4986007;28;45372;-44
2023/05/06 11:04:33;;;;;;;;;4.00;2.50;;;;;21.64;47.30;101076.47;4979951;28;45258;-44
2023/05/06 11:07:12;;;;;;;;;3.00;3.00;;;;;21.65;47.11;101072.06;4978582;28;46252;-47
2023/05/06 11:10:06;;;;;;;;;1.75;1.75;;;;;21.65;47.53;101074.72;4978500;28;45848;-46
2023/05/06 11:12:49;;;;;;;;;4.50;3.50;;;;;21.63;47.52;101069.50;4979393;28;45369;-47
2023/05/06 11:15:24;;;;;;;;;6.00;4.75;;;;;21.65;47.54;101061.53;4984986;28;45439;-45
2023/05/06 11:17:51;;;;;;;;;8.25;5.00;;;;;21.65;47.23;101072.06;4983162;28;45715;-49
2023/05/06 11:20:18;;;;;;;;;4.00;4.00;;;;;21.63;47.43;101064.22;4979398;28;45291;-47
2023/05/06 11:22:44;;;;;;;;;6.75;4.00;;;;;21.62;47.16;101057.25;4982945;28;45317;-49